Time;durP1;ratioP1;P1;durP2;ratioP2;P2;SDS_P1;SDS_P2;PMS_P1;PMS_P2;Temp;Humidity;BMP_temperature;BMP_pressure;BME280_temperature;BME280_humidity;BME280_pressure;Samples;Min_cycle;Max_cycle;Signal;HPM_P1;HPM_P2
2024/01/18 00:03:26;;;;;;;9.20;6.70;;;;;;;3.87;100.00;97328.13;181169;1264;43050;-66
2024/01/18 00:07:29;;;;;;;9.90;6.20;;;;;;;3.93;100.00;97325.55;181075;1264;43020;-67
2024/01/18 00:11:32;;;;;;;9.50;6.30;;;;;;;3.93;100.00;97332.78;181149;1263;56985;-66
2024/01/18 00:20:51;;;;;;;12.00;8.30;;;;;;;3.77;100.00;97352.06;181168;1264;43710;-67
2024/01/18 00:24:54;;;;;;;9.40;6.20;;;;;;;3.68;100.00;97365.30;181200;1264;43488;-67
2024/01/18 00:29:00;;;;;;;6.80;5.60;;;;;;;3.61;100.00;97361.81;181165;1264;43447;-67
2024/01/18 00:33:03;;;;;;;9.90;6.70;;;;;;;3.59;100.00;97376.88;181184;1264;56931;-67
2024/01/18 00:37:09;;;;;;;7.40;5.90;;;;;;;3.66;100.00;97383.38;181190;1264;43611;-67
2024/01/18 00:41:12;;;;;;;7.50;6.50;;;;;;;3.70;100.00;97385.23;181051;1263;43745;-68
2024/01/18 00:45:15;;;;;;;10.80;7.00;;;;;;;3.75;100.00;97389.60;181201;1263;43438;-68
2024/01/18 00:49:20;;;;;;;8.60;7.60;;;;;;;3.83;100.00;97393.35;181181;1263;43865;-68
2024/01/18 00:53:23;;;;;;;16.30;10.40;;;;;;;3.89;100.00;97410.88;181042;1264;58011;-68
2024/01/18 00:57:33;;;;;;;9.50;7.30;;;;;;;3.86;100.00;97415.42;181166;1263;43695;-68
2024/01/18 01:01:36;;;;;;;11.70;7.80;;;;;;;3.82;100.00;97419.46;181083;1265;43509;-68
2024/01/18 01:05:39;;;;;;;11.90;7.90;;;;;;;3.76;100.00;97417.09;181189;1264;43465;-68
2024/01/18 01:09:42;;;;;;;14.20;8.10;;;;;;;3.74;100.00;97422.57;181097;1264;43061;-68
2024/01/18 01:13:48;;;;;;;12.10;8.40;;;;;;;3.62;100.00;97417.94;181187;1264;57031;-68
2024/01/18 01:17:51;;;;;;;14.20;10.70;;;;;;;3.58;100.00;97419.59;181205;1263;43100;-68
2024/01/18 01:21:55;;;;;;;14.90;9.00;;;;;;;3.51;100.00;97422.98;181219;1263;43973;-68
2024/01/18 01:25:58;;;;;;;16.40;11.20;;;;;;;3.49;100.00;97428.80;181039;1264;43066;-68
2024/01/18 01:30:01;;;;;;;19.90;12.30;;;;;;;3.46;100.00;97434.56;181081;1263;43053;-68
2024/01/18 01:34:04;;;;;;;19.00;10.90;;;;;;;3.44;100.00;97434.69;181208;1264;58323;-68
2024/01/18 01:38:08;;;;;;;17.30;13.50;;;;;;;3.51;100.00;97447.52;181069;1264;43753;-68
2024/01/18 01:42:11;;;;;;;21.30;14.50;;;;;;;3.55;100.00;97451.88;181177;1264;43742;-68
2024/01/18 01:46:43;;;;;;;23.00;14.60;;;;;;;3.57;100.00;97463.03;181101;1263;43627;-69
2024/01/18 01:50:47;;;;;;;21.10;14.60;;;;;;;3.65;100.00;97470.02;181212;1262;43095;-68
2024/01/18 01:54:50;;;;;;;23.70;14.70;;;;;;;3.66;100.00;97472.17;181137;1264;58062;-69
2024/01/18 01:58:53;;;;;;;18.60;11.70;;;;;;;3.60;100.00;97479.48;181180;1263;43042;-68
2024/01/18 02:02:56;;;;;;;21.80;13.90;;;;;;;3.44;100.00;97481.69;181050;1266;43807;-68
2024/01/18 02:06:59;;;;;;;19.50;14.90;;;;;;;3.37;100.00;97482.94;181099;1264;43184;-68
2024/01/18 02:11:03;;;;;;;23.50;14.90;;;;;;;3.26;100.00;97477.47;181063;1264;43012;-68
2024/01/18 02:15:07;;;;;;;26.30;15.30;;;;;;;3.16;100.00;97485.23;181123;1264;57650;-68
2024/01/18 02:19:10;;;;;;;35.30;16.50;;;;;;;3.03;100.00;97489.96;181127;1263;43195;-68
2024/01/18 02:23:14;;;;;;;20.10;15.80;;;;;;;3.07;100.00;97501.30;181061;1263;43058;-67
2024/01/18 02:27:19;;;;;;;31.00;18.50;;;;;;;3.11;100.00;97507.80;181089;1263;43943;-67
2024/01/18 02:31:48;;;;;;;29.20;17.20;;;;;;;3.14;100.00;97503.08;181157;1262;43902;-68
2024/01/18 02:35:52;;;;;;;38.20;21.40;;;;;;;3.17;100.00;97508.48;181144;1263;59591;-67
2024/01/18 02:39:55;;;;;;;31.40;21.80;;;;;;;3.20;100.00;97504.81;181022;1265;43148;-67
2024/01/18 02:44:00;;;;;;;26.30;18.90;;;;;;;3.24;100.00;97501.79;181082;1264;44166;-67
2024/01/18 02:48:04;;;;;;;30.30;20.80;;;;;;;3.25;100.00;97511.36;181056;1263;43723;-67
2024/01/18 02:52:07;;;;;;;26.30;19.40;;;;;;;3.23;100.00;97514.03;181098;1263;43007;-66
2024/01/18 02:56:10;;;;;;;38.10;21.90;;;;;;;3.11;100.00;97515.69;181170;1263;57882;-66
2024/01/18 03:00:14;;;;;;;37.10;24.00;;;;;;;3.13;100.00;97506.20;181189;1262;43478;-66
2024/01/18 03:04:17;;;;;;;30.50;22.80;;;;;;;3.10;100.00;97514.84;181168;1264;43091;-66
2024/01/18 03:08:20;;;;;;;37.50;25.20;;;;;;;3.00;100.00;97532.80;181136;1263;43667;-66
2024/01/18 03:12:23;;;;;;;33.80;23.50;;;;;;;2.77;100.00;97537.23;181226;1264;43832;-66
2024/01/18 03:16:26;;;;;;;37.40;24.50;;;;;;;2.56;100.00;97533.72;181125;1264;58018;-66
2024/01/18 03:20:29;;;;;;;37.30;23.40;;;;;;;2.49;100.00;97544.30;181157;1263;43030;-67
2024/01/18 03:24:32;;;;;;;39.10;25.10;;;;;;;2.46;100.00;97557.54;181115;1263;43920;-66
2024/01/18 03:28:35;;;;;;;33.40;21.50;;;;;;;2.48;100.00;97568.08;181180;1263;43616;-65
2024/01/18 03:32:38;;;;;;;38.10;26.60;;;;;;;2.45;100.00;97569.02;181188;1263;43566;-66
2024/01/18 03:36:41;;;;;;;35.60;23.40;;;;;;;2.39;100.00;97578.15;181242;1263;58298;-66
2024/01/18 03:40:44;;;;;;;32.40;21.90;;;;;;;2.32;100.00;97583.08;181130;1263;43632;-65
2024/01/18 03:44:47;;;;;;;36.70;20.80;;;;;;;2.25;100.00;97584.61;181191;1264;43556;-66
2024/01/18 03:48:50;;;;;;;28.10;18.60;;;;;;;2.23;100.00;97586.75;181219;1262;43149;-66
2024/01/18 03:52:54;;;;;;;21.10;15.10;;;;;;;2.23;100.00;97605.63;181146;1264;43113;-66
2024/01/18 03:56:57;;;;;;;27.50;18.40;;;;;;;2.20;100.00;97616.89;181118;1264;58252;-65
2024/01/18 04:01:01;;;;;;;29.20;20.20;;;;;;;2.12;100.00;97619.88;181165;1264;43856;-65
2024/01/18 04:05:05;;;;;;;35.40;18.90;;;;;;;2.06;100.00;97635.21;181188;1264;43931;-65
2024/01/18 04:09:08;;;;;;;28.90;20.00;;;;;;;1.94;100.00;97640.89;181159;1264;43711;-65
2024/01/18 04:13:37;;;;;;;34.00;23.80;;;;;;;1.84;100.00;97644.22;181097;1264;43016;-65
2024/01/18 04:17:40;;;;;;;28.30;18.00;;;;;;;1.74;100.00;97640.30;181093;1264;59327;-64
2024/01/18 04:21:43;;;;;;;31.50;16.80;;;;;;;1.69;100.00;97666.67;181098;1264;43555;-64
2024/01/18 04:25:47;;;;;;;37.40;19.20;;;;;;;1.61;100.00;97671.52;181087;1264;43061;-63
2024/01/18 04:29:52;;;;;;;33.20;20.20;;;;;;;1.58;100.00;97677.90;181061;1265;43622;-63
2024/01/18 04:33:56;;;;;;;38.50;23.60;;;;;;;1.61;100.00;97685.13;181088;1264;43746;-63
2024/01/18 04:37:59;;;;;;;31.20;21.00;;;;;;;1.64;100.00;97688.37;181088;1264;58207;-64
2024/01/18 04:42:02;;;;;;;36.10;24.00;;;;;;;1.55;100.00;97697.86;181114;1263;43136;-63
2024/01/18 04:46:11;;;;;;;35.70;21.90;;;;;;;1.53;100.00;97702.73;181129;1264;43737;-64
2024/01/18 04:50:14;;;;;;;36.20;23.70;;;;;;;1.53;100.00;97708.33;181044;1266;43066;-63
2024/01/18 04:54:22;;;;;;;39.20;25.80;;;;;;;1.57;100.00;97714.85;181090;1265;43062;-63
2024/01/18 04:58:25;;;;;;;36.20;24.00;;;;;;;1.58;100.00;97721.23;181128;1264;57225;-63
2024/01/18 05:02:28;;;;;;;33.50;24.70;;;;;;;1.59;100.00;97731.06;181066;1264;43699;-63
2024/01/18 05:06:31;;;;;;;37.20;24.30;;;;;;;1.58;100.00;97743.41;181139;1264;43804;-62
2024/01/18 05:10:35;;;;;;;39.50;22.30;;;;;;;1.56;100.00;97753.05;181174;1262;43782;-63
2024/01/18 05:19:39;;;;;;;36.60;25.10;;;;;;;1.38;100.00;97778.29;181191;1263;58112;-62
2024/01/18 05:23:42;;;;;;;44.90;24.00;;;;;;;1.40;100.00;97776.86;181210;1263;43526;-62
2024/01/18 05:27:55;;;;;;;37.50;23.50;;;;;;;1.42;100.00;97787.55;181194;1263;43750;-62
2024/01/18 05:31:58;;;;;;;39.20;24.80;;;;;;;1.46;100.00;97794.35;181089;1263;43115;-62
2024/01/18 05:36:02;;;;;;;36.80;24.20;;;;;;;1.40;100.00;97805.20;181117;1264;43023;-62
2024/01/18 05:40:07;;;;;;;33.60;23.90;;;;;;;1.39;100.00;97815.92;181221;1264;58379;-62
2024/01/18 05:44:10;;;;;;;37.30;22.50;;;;;;;1.36;100.00;97829.80;181162;1263;43716;-62
2024/01/18 05:48:14;;;;;;;42.00;23.40;;;;;;;1.33;100.00;97834.24;181205;1263;43706;-62
2024/01/18 05:52:17;;;;;;;32.10;19.50;;;;;;;1.28;100.00;97842.80;181216;1264;43120;-62
2024/01/18 05:56:20;;;;;;;35.80;22.40;;;;;;;1.15;100.00;97851.19;181182;1263;43667;-62
2024/01/18 06:00:34;;;;;;;36.60;19.40;;;;;;;1.13;100.00;97849.13;181151;1264;58188;-62
2024/01/18 06:04:37;;;;;;;43.30;24.20;;;;;;;1.20;100.00;97853.59;181172;1264;43879;-62
2024/01/18 06:08:40;;;;;;;34.20;23.00;;;;;;;1.16;100.00;97860.38;181212;1263;43065;-62
2024/01/18 06:12:43;;;;;;;27.30;20.70;;;;;;;1.11;100.00;97865.54;181191;1263;43142;-62
2024/01/18 06:16:46;;;;;;;37.30;20.40;;;;;;;1.14;100.00;97871.23;181203;1264;43003;-61
2024/01/18 06:20:54;;;;;;;31.60;20.60;;;;;;;1.08;100.00;97878.83;181162;1263;57909;-61
2024/01/18 06:24:57;;;;;;;36.30;22.40;;;;;;;1.01;100.00;97878.51;181215;1264;43497;-62
2024/01/18 06:29:00;;;;;;;41.00;24.30;;;;;;;1.04;100.00;97884.75;181153;1263;43747;-61
2024/01/18 06:33:04;;;;;;;41.40;23.80;;;;;;;1.08;100.00;97891.97;181225;1263;43729;-62
2024/01/18 06:37:08;;;;;;;44.10;22.90;;;;;;;1.06;100.00;97902.77;181145;1263;43722;-62
2024/01/18 06:41:13;;;;;;;33.40;22.20;;;;;;;1.03;100.00;97910.81;181221;1262;58237;-62
2024/01/18 06:45:16;;;;;;;35.10;21.70;;;;;;;1.01;100.00;97906.14;181178;1263;43083;-61
2024/01/18 06:49:19;;;;;;;33.10;19.70;;;;;;;0.96;100.00;97899.17;181160;1264;43016;-62
2024/01/18 06:53:23;;;;;;;29.30;18.20;;;;;;;0.92;100.00;97910.98;181172;1263;43341;-62
2024/01/18 06:57:26;;;;;;;29.90;16.70;;;;;;;0.94;100.00;97913.31;181205;1264;43797;-61
2024/01/18 07:01:33;;;;;;;34.90;21.00;;;;;;;0.87;100.00;97916.28;181206;1264;58199;-62
2024/01/18 07:05:36;;;;;;;33.90;19.60;;;;;;;0.86;100.00;97926.80;181160;1264;43074;-61
2024/01/18 07:09:42;;;;;;;38.10;21.20;;;;;;;0.77;100.00;97937.82;181201;1263;43775;-61
2024/01/18 07:13:45;;;;;;;29.90;17.20;;;;;;;0.59;100.00;97937.50;181149;1264;43910;-61
2024/01/18 07:17:48;;;;;;;31.70;21.40;;;;;;;0.56;100.00;97922.17;181206;1263;43039;-61
2024/01/18 07:21:53;;;;;;;30.10;19.80;;;;;;;0.66;100.00;97919.32;181206;1264;57899;-61
2024/01/18 07:26:23;;;;;;;34.00;20.40;;;;;;;0.66;100.00;97927.83;181182;1263;43639;-61
2024/01/18 07:30:26;;;;;;;41.90;25.70;;;;;;;0.72;100.00;97929.11;181244;1263;43052;-61
2024/01/18 07:34:34;;;;;;;50.10;23.80;;;;;;;0.69;100.00;97933.35;181222;1263;43911;-61
2024/01/18 07:38:38;;;;;;;34.90;21.30;;;;;;;0.70;100.00;97932.62;181058;1263;43686;-61
2024/01/18 07:42:41;;;;;;;39.00;23.30;;;;;;;0.73;100.00;97932.25;181149;1263;57880;-61
2024/01/18 07:46:44;;;;;;;37.70;22.30;;;;;;;0.77;100.00;97925.60;181186;1263;43140;-61
2024/01/18 07:51:38;;;;;;;39.00;23.80;;;;;;;0.80;100.00;97934.46;181182;1264;43017;-61
2024/01/18 07:55:43;;;;;;;29.80;16.30;;;;;;;0.71;100.00;97944.96;181143;1265;43760;-61
2024/01/18 07:59:46;;;;;;;30.50;20.60;;;;;;;0.71;100.00;97952.06;181167;1263;43065;-61
2024/01/18 08:03:49;;;;;;;37.00;22.70;;;;;;;0.83;100.00;97941.42;181152;1263;58599;-61
2024/01/18 08:07:52;;;;;;;42.90;23.80;;;;;;;0.98;100.00;97937.22;181132;1263;43933;-61
2024/01/18 08:12:02;;;;;;;43.80;27.60;;;;;;;1.05;100.00;97960.80;181245;1263;43174;-61
2024/01/18 08:16:07;;;;;;;48.70;29.50;;;;;;;1.01;100.00;97977.68;181101;1264;43058;-61
2024/01/18 08:20:13;;;;;;;48.80;33.60;;;;;;;1.03;100.00;97980.13;181139;1263;43641;-61
2024/01/18 08:25:24;;;;;;;50.10;29.80;;;;;;;1.00;100.00;97982.30;181105;1264;57037;-61
2024/01/18 08:29:27;;;;;;;45.40;31.60;;;;;;;1.01;100.00;97994.64;181169;1264;43196;-61
2024/01/18 08:33:32;;;;;;;40.20;24.50;;;;;;;0.97;100.00;97992.27;181211;1264;43770;-61
2024/01/18 08:37:37;;;;;;;41.80;23.00;;;;;;;0.96;100.00;97994.77;181203;1265;43102;-61
2024/01/18 08:41:40;;;;;;;50.80;27.10;;;;;;;0.97;100.00;97989.30;181186;1263;43881;-61
2024/01/18 08:46:10;;;;;;;41.80;28.50;;;;;;;1.00;100.00;97996.58;181169;1264;57905;-61
2024/01/18 08:50:15;;;;;;;42.50;26.90;;;;;;;1.09;100.00;97996.73;181124;1264;43781;-61
2024/01/18 08:54:18;;;;;;;40.90;25.60;;;;;;;1.08;100.00;98005.59;181173;1264;43065;-61
2024/01/18 08:58:26;;;;;;;47.40;31.60;;;;;;;1.05;100.00;98015.78;181136;1263;43512;-62
2024/01/18 09:02:30;;;;;;;47.30;29.40;;;;;;;1.11;100.00;98018.77;181130;1264;44040;-63
2024/01/18 09:06:35;;;;;;;44.80;25.00;;;;;;;1.11;100.00;98031.15;181121;1264;58212;-62
2024/01/18 09:10:45;;;;;;;42.40;27.20;;;;;;;1.05;100.00;98042.30;181040;1265;43993;-61
2024/01/18 09:14:47;;;;;;;42.40;29.80;;;;;;;0.95;100.00;98046.19;181140;1264;42973;-61
2024/01/18 09:18:53;;;;;;;48.80;31.40;;;;;;;0.92;100.00;98050.62;181201;1264;43857;-61
2024/01/18 09:23:15;;;;;;;47.50;30.90;;;;;;;0.96;100.00;98050.69;181101;1264;43700;-62
2024/01/18 09:27:18;;;;;;;53.90;31.00;;;;;;;0.98;100.00;98056.44;181107;1264;58260;-61
2024/01/18 09:31:22;;;;;;;40.80;27.70;;;;;;;1.03;100.00;98053.30;181100;1264;43441;-62
2024/01/18 09:35:40;;;;;;;48.20;27.60;;;;;;;1.05;100.00;98048.23;181064;1265;43706;-61
2024/01/18 09:56:20;;;;;;;33.30;21.10;;;;;;;1.60;100.00;98059.10;180971;1260;43993;-60
2024/01/18 10:00:27;;;;;;;39.80;22.20;;;;;;;1.66;100.00;98055.80;183835;1241;45145;-61
2024/01/18 10:04:31;;;;;;;38.20;23.10;;;;;;;1.75;100.00;98052.83;184005;1243;45975;-63
2024/01/18 10:08:36;;;;;;;28.70;20.30;;;;;;;1.78;100.00;98065.67;183766;1244;45940;-63
2024/01/18 10:12:42;;;;;;;38.90;21.70;;;;;;;1.78;100.00;98068.89;183982;1244;44809;-64
2024/01/18 10:16:48;;;;;;;36.50;21.20;;;;;;;1.77;100.00;98081.71;183994;1244;57367;-64
2024/01/18 10:20:50;;;;;;;36.50;22.70;;;;;;;1.73;100.00;98073.45;183877;1244;44721;-64
2024/01/18 10:24:53;;;;;;;36.60;22.00;;;;;;;1.74;100.00;98064.49;183899;1241;45964;-64
2024/01/18 10:28:58;;;;;;;27.70;19.80;;;;;;;1.89;100.00;98044.73;183799;1244;44388;-63
2024/01/18 10:33:04;;;;;;;36.80;22.00;;;;;;;2.06;100.00;98057.83;183763;1244;44522;-64
2024/01/18 10:37:16;;;;;;;36.00;21.20;;;;;;;2.13;100.00;98074.23;183843;1243;58792;-64
2024/01/18 10:41:22;;;;;;;30.20;20.10;;;;;;;2.15;99.67;98083.68;183678;1241;45848;-64
2024/01/18 10:45:28;;;;;;;34.60;22.50;;;;;;;2.21;98.92;98072.55;183900;1242;43577;-64
2024/01/18 10:49:33;;;;;;;36.00;19.30;;;;;;;2.25;97.13;98082.55;183910;1244;43839;-64
2024/01/18 10:53:41;;;;;;;31.60;21.70;;;;;;;2.26;97.57;98094.20;183812;1244;46077;-64
2024/01/18 10:57:45;;;;;;;31.00;21.00;;;;;;;2.24;97.21;98111.27;183811;1245;57632;-64
2024/01/18 11:30:30;;;;;;;36.50;20.50;;;;;;;2.17;99.40;98144.79;183658;1244;45021;-63
2024/01/18 11:34:38;;;;;;;34.90;20.50;;;;;;;2.21;98.48;98148.95;183613;1244;44341;-63
2024/01/18 11:38:45;;;;;;;36.00;21.70;;;;;;;2.16;97.52;98150.92;183177;1244;44793;-64
2024/01/18 11:43:13;;;;;;;36.90;22.30;;;;;;;2.10;97.63;98156.27;183452;1244;43848;-64
2024/01/18 11:47:18;;;;;;;35.20;24.90;;;;;;;2.16;99.29;98155.48;183643;1244;58128;-63
2024/01/18 11:51:22;;;;;;;39.40;24.90;;;;;;;2.19;99.58;98158.61;183569;1244;45907;-63
2024/01/18 11:55:31;;;;;;;36.60;23.00;;;;;;;2.12;98.02;98149.51;183496;1244;45911;-63
2024/01/18 11:59:33;;;;;;;33.60;19.80;;;;;;;2.09;98.37;98151.45;183448;1244;43652;-63
2024/01/18 12:03:35;;;;;;;39.90;24.10;;;;;;;2.01;97.95;98146.35;183696;1244;46079;-63
2024/01/18 12:07:40;;;;;;;31.50;21.20;;;;;;;1.92;98.50;98143.59;183502;1245;58282;-62
2024/01/18 12:11:46;;;;;;;30.90;20.10;;;;;;;1.84;99.15;98144.55;183586;1244;46021;-62
2024/01/18 12:15:52;;;;;;;34.60;22.90;;;;;;;1.84;99.46;98141.05;183718;1245;45927;-62
2024/01/18 12:19:54;;;;;;;33.70;20.50;;;;;;;1.71;99.53;98141.73;183640;1244;44687;-62
2024/01/18 12:23:57;;;;;;;32.80;23.30;;;;;;;1.55;99.42;98145.78;183825;1244;45932;-61
2024/01/18 12:27:59;;;;;;;34.90;20.40;;;;;;;1.53;99.89;98136.02;183697;1244;59890;-62
2024/01/18 12:32:02;;;;;;;35.70;23.10;;;;;;;1.51;100.00;98138.79;183762;1244;44908;-62
2024/01/18 12:36:04;;;;;;;34.70;23.00;;;;;;;1.50;100.00;98145.34;183653;1244;44776;-62
2024/01/18 12:40:11;;;;;;;31.10;19.60;;;;;;;1.45;99.91;98154.98;183871;1245;46337;-62
2024/01/18 12:44:22;;;;;;;41.90;22.50;;;;;;;1.45;100.00;98151.16;183589;1244;45943;-62
2024/01/18 12:48:27;;;;;;;30.30;21.40;;;;;;;1.40;100.00;98145.04;183707;1244;59729;-62
2024/01/18 12:52:32;;;;;;;40.80;23.50;;;;;;;1.42;100.00;98142.98;183686;1244;46016;-62
2024/01/18 12:56:43;;;;;;;34.80;21.20;;;;;;;1.43;100.00;98145.17;183831;1244;45912;-62
2024/01/18 13:00:53;;;;;;;33.80;22.40;;;;;;;1.38;100.00;98144.17;183529;1244;46157;-62
2024/01/18 13:04:58;;;;;;;31.70;24.10;;;;;;;1.27;100.00;98149.70;183544;1244;45860;-62
2024/01/18 13:09:04;;;;;;;39.80;21.10;;;;;;;1.19;100.00;98162.02;183380;1245;58617;-62
2024/01/18 13:13:08;;;;;;;31.70;22.10;;;;;;;1.17;100.00;98173.04;183618;1244;45965;-63
2024/01/18 13:17:16;;;;;;;29.70;19.10;;;;;;;1.09;100.00;98180.91;183554;1244;45890;-63
2024/01/18 13:21:18;;;;;;;41.80;23.70;;;;;;;0.99;100.00;98198.14;183672;1244;46082;-63
2024/01/18 13:25:25;;;;;;;51.70;27.90;;;;;;;0.93;100.00;98204.47;183633;1245;43727;-62
2024/01/18 13:29:27;;;;;;;37.00;20.70;;;;;;;0.91;100.00;98206.51;183714;1244;58321;-62
2024/01/18 13:33:29;;;;;;;38.70;24.10;;;;;;;0.80;100.00;98215.74;183508;1244;45067;-62
2024/01/18 13:37:32;;;;;;;37.60;22.90;;;;;;;0.72;100.00;98229.23;183776;1244;45998;-62
2024/01/18 13:41:34;;;;;;;33.00;20.50;;;;;;;0.61;100.00;98238.96;183607;1244;45976;-63
2024/01/18 13:45:43;;;;;;;30.40;20.30;;;;;;;0.53;100.00;98235.83;183603;1244;43665;-63
2024/01/18 13:49:48;;;;;;;35.90;23.00;;;;;;;0.51;100.00;98229.55;184008;1235;57445;-67
2024/01/18 13:53:50;;;;;;;33.20;19.90;;;;;;;0.45;100.00;98245.68;183593;1240;45946;-66
2024/01/18 13:57:53;;;;;;;35.90;21.90;;;;;;;0.42;100.00;98251.82;183907;1235;44857;-65
2024/01/18 14:01:55;;;;;;;37.30;21.90;;;;;;;0.40;100.00;98260.66;184049;1235;46058;-64
2024/01/18 14:05:58;;;;;;;35.20;20.40;;;;;;;0.42;100.00;98271.50;183876;1235;44894;-65
2024/01/18 14:10:01;;;;;;;34.90;21.00;;;;;;;0.32;100.00;98277.84;184336;1235;57654;-66
2024/01/18 14:14:04;;;;;;;37.10;23.90;;;;;;;0.27;100.00;98279.73;184196;1235;45884;-65
2024/01/18 14:18:11;;;;;;;31.10;17.30;;;;;;;0.22;100.00;98283.95;184467;1235;45298;-67
2024/01/18 14:22:13;;;;;;;26.70;17.90;;;;;;;0.13;100.00;98289.27;183721;1239;94663;-85
2024/01/18 14:26:17;;;;;;;28.40;18.70;;;;;;;-0.05;100.00;98295.02;183798;1237;44096;-83
2024/01/18 14:30:18;;;;;;;28.30;15.90;;;;;;;-0.13;100.00;98301.35;182707;1235;59474;-84
2024/01/18 14:34:20;;;;;;;28.00;15.70;;;;;;;-0.14;100.00;98312.23;182505;1237;45970;-83
2024/01/18 14:38:22;;;;;;;28.80;16.60;;;;;;;-0.19;100.00;98323.02;183145;1237;46564;-85
2024/01/18 14:42:24;;;;;;;24.20;17.50;;;;;;;-0.27;100.00;98336.65;183129;1239;45823;-85
2024/01/18 14:46:26;;;;;;;26.70;16.10;;;;;;;-0.25;100.00;98342.26;182327;1238;46173;-84
2024/01/18 14:50:28;;;;;;;27.90;18.50;;;;;;;-0.28;100.00;98347.98;182178;1237;57154;-85
2024/01/18 14:54:31;;;;;;;35.20;18.30;;;;;;;-0.28;100.00;98352.90;182487;1240;46078;-84
2024/01/18 14:58:33;;;;;;;27.20;19.00;;;;;;;-0.25;100.00;98361.07;183412;1236;45961;-84
2024/01/18 15:02:35;;;;;;;28.30;16.70;;;;;;;-0.26;100.00;98368.06;182274;1240;46082;-85
2024/01/18 15:06:37;;;;;;;35.70;20.10;;;;;;;-0.25;100.00;98380.89;183171;1232;44757;-84
2024/01/18 15:10:39;;;;;;;26.30;16.30;;;;;;;-0.28;100.00;98392.07;182611;1240;57977;-84
2024/01/18 15:14:41;;;;;;;38.70;19.50;;;;;;;-0.31;100.00;98399.09;183090;1232;46152;-84
2024/01/18 15:18:44;;;;;;;37.60;21.20;;;;;;;-0.41;100.00;98416.30;182799;1232;44073;-84
2024/01/18 15:22:46;;;;;;;41.90;20.40;;;;;;;-0.41;100.00;98432.84;182888;1237;46113;-84
2024/01/18 15:26:48;;;;;;;36.20;18.80;;;;;;;-0.39;100.00;98443.86;183036;1232;46049;-84
2024/01/18 15:30:50;;;;;;;39.00;23.80;;;;;;;-0.40;100.00;98459.08;182964;1232;59056;-84
2024/01/18 15:34:52;;;;;;;37.80;21.50;;;;;;;-0.37;100.00;98459.40;182859;1232;45960;-84
2024/01/18 15:38:54;;;;;;;44.80;24.60;;;;;;;-0.36;100.00;98466.70;182899;1232;45949;-83
2024/01/18 15:42:56;;;;;;;34.50;21.40;;;;;;;-0.36;100.00;98475.20;183111;1237;46209;-85
2024/01/18 15:47:04;;;;;;;35.00;18.00;;;;;;;-0.34;100.00;98483.59;182971;1232;46177;-85
2024/01/18 15:51:07;;;;;;;43.30;24.50;;;;;;;-0.36;100.00;98488.73;182662;1232;58322;-85
2024/01/18 15:55:09;;;;;;;35.30;21.50;;;;;;;-0.35;100.00;98479.78;183056;1232;45857;-84
2024/01/18 15:59:12;;;;;;;33.50;21.00;;;;;;;-0.34;100.00;98486.34;183341;1232;45934;-84
2024/01/18 16:03:14;;;;;;;32.90;21.10;;;;;;;-0.37;100.00;98497.86;182887;1237;46045;-84
2024/01/18 16:07:16;;;;;;;40.90;21.50;;;;;;;-0.34;100.00;98491.98;182490;1232;45954;-84
2024/01/18 16:11:19;;;;;;;33.90;20.10;;;;;;;-0.21;100.00;98504.83;182797;1232;58462;-84
2024/01/18 16:15:20;;;;;;;28.90;19.40;;;;;;;-0.19;100.00;98530.67;182859;1232;45958;-84
2024/01/18 16:19:22;;;;;;;20.70;15.20;;;;;;;-0.22;100.00;98541.70;183655;1232;46060;-84
2024/01/18 16:23:24;;;;;;;24.70;15.30;;;;;;;-0.22;100.00;98544.81;182760;1237;45963;-84
2024/01/18 16:27:26;;;;;;;19.90;10.80;;;;;;;-0.25;100.00;98553.69;182642;1232;45911;-84
2024/01/18 16:31:28;;;;;;;26.00;14.50;;;;;;;-0.29;100.00;98563.42;182404;1232;57929;-84
2024/01/18 16:35:30;;;;;;;22.70;13.00;;;;;;;-0.33;100.00;98572.50;182722;1236;45992;-83
2024/01/18 16:39:32;;;;;;;27.30;16.10;;;;;;;-0.37;100.00;98598.20;182963;1232;45953;-84
2024/01/18 16:43:34;;;;;;;19.30;12.30;;;;;;;-0.42;100.00;98609.33;183532;1232;46064;-83
2024/01/18 16:47:36;;;;;;;35.30;18.00;;;;;;;-0.44;100.00;98627.53;182899;1236;45978;-83
2024/01/18 16:51:38;;;;;;;23.70;16.60;;;;;;;-0.45;100.00;98635.45;182972;1233;59409;-85
2024/01/18 16:55:40;;;;;;;38.20;15.00;;;;;;;-0.45;100.00;98639.66;182937;1234;46123;-84
2024/01/18 16:59:42;;;;;;;25.50;15.60;;;;;;;-0.48;100.00;98642.27;182980;1232;45987;-83
2024/01/18 17:03:44;;;;;;;24.40;16.30;;;;;;;-0.46;100.00;98644.22;182563;1237;46568;-83
2024/01/18 17:07:46;;;;;;;35.00;18.10;;;;;;;-0.46;100.00;98647.68;182975;1232;46046;-83
2024/01/18 17:11:47;;;;;;;23.80;13.80;;;;;;;-0.56;100.00;98660.19;183264;1236;57507;-83
2024/01/18 17:15:49;;;;;;;29.60;19.10;;;;;;;-0.60;100.00;98668.63;182936;1237;45936;-84
2024/01/18 17:19:51;;;;;;;36.90;22.20;;;;;;;-0.60;100.00;98679.05;183373;1232;45960;-84
2024/01/18 17:23:53;;;;;;;30.60;19.10;;;;;;;-0.60;100.00;98675.23;183085;1232;46180;-83
2024/01/18 17:27:55;;;;;;;34.40;17.00;;;;;;;-0.71;100.00;98687.20;182748;1232;46089;-84
2024/01/18 17:31:57;;;;;;;28.20;16.60;;;;;;;-0.79;100.00;98694.97;184088;1232;59420;-82
2024/01/18 17:35:58;;;;;;;25.00;15.50;;;;;;;-0.89;100.00;98701.67;184336;1233;46491;-84
2024/01/18 17:40:00;;;;;;;32.10;17.90;;;;;;;-0.96;100.00;98703.29;183162;1232;46000;-83
2024/01/18 17:44:03;;;;;;;24.10;11.70;;;;;;;-0.97;100.00;98703.58;183233;1232;46257;-86
2024/01/18 17:48:06;;;;;;;30.00;15.90;;;;;;;-1.03;100.00;98705.32;183036;1234;46068;-83
2024/01/18 17:52:08;;;;;;;29.40;17.60;;;;;;;-0.95;100.00;98710.76;183031;1234;58068;-86
2024/01/18 17:56:10;;;;;;;33.60;21.30;;;;;;;-0.93;100.00;98721.79;182930;1232;46058;-83
2024/01/18 18:00:12;;;;;;;35.50;21.20;;;;;;;-0.88;100.00;98733.46;182548;1232;45938;-83
2024/01/18 18:04:17;;;;;;;30.40;19.70;;;;;;;-0.84;100.00;98736.03;183033;1232;46157;-83
2024/01/18 18:08:18;;;;;;;32.50;17.30;;;;;;;-0.90;100.00;98744.19;183100;1232;44270;-83
2024/01/18 18:12:20;;;;;;;25.20;14.90;;;;;;;-0.90;100.00;98742.31;182909;1231;58073;-83
2024/01/18 18:16:22;;;;;;;29.20;15.90;;;;;;;-0.83;100.00;98751.34;182665;1235;46130;-83
2024/01/18 18:20:24;;;;;;;23.60;14.90;;;;;;;-0.76;100.00;98764.11;183874;1232;44655;-84
2024/01/18 18:24:26;;;;;;;26.40;17.50;;;;;;;-0.61;100.00;98776.98;183579;1230;45923;-84
2024/01/18 18:28:28;;;;;;;32.60;16.00;;;;;;;-0.48;100.00;98784.23;183869;1232;46084;-84
2024/01/18 18:32:29;;;;;;;28.60;15.40;;;;;;;-0.49;100.00;98798.88;182919;1232;58412;-84
2024/01/18 18:36:32;;;;;;;22.00;11.90;;;;;;;-0.60;100.00;98812.95;183093;1232;46063;-84
2024/01/18 18:40:34;;;;;;;26.10;16.10;;;;;;;-0.73;100.00;98819.97;182828;1232;44348;-83
2024/01/18 18:44:35;;;;;;;27.10;15.80;;;;;;;-0.82;100.00;98833.38;183930;1232;46068;-84
2024/01/18 18:48:37;;;;;;;26.60;16.30;;;;;;;-0.74;100.00;98835.20;183259;1232;46068;-84
2024/01/18 18:52:39;;;;;;;29.00;15.50;;;;;;;-0.68;100.00;98853.84;183181;1232;58179;-83
2024/01/18 18:56:41;;;;;;;25.00;15.20;;;;;;;-0.62;100.00;98861.67;183729;1232;45237;-84
2024/01/18 19:00:45;;;;;;;25.90;14.60;;;;;;;-0.60;100.00;98867.30;183529;1236;46189;-83
2024/01/18 19:04:47;;;;;;;26.20;14.50;;;;;;;-0.53;100.00;98872.81;183528;1232;46526;-83
2024/01/18 19:08:51;;;;;;;22.90;13.00;;;;;;;-0.55;100.00;98875.56;184046;1232;45891;-83
2024/01/18 19:12:54;;;;;;;30.40;17.60;;;;;;;-0.54;100.00;98881.05;183305;1235;59944;-84
2024/01/18 19:16:55;;;;;;;25.70;15.90;;;;;;;-0.49;100.00;98901.63;183294;1232;46090;-83
2024/01/18 19:21:04;;;;;;;25.70;18.70;;;;;;;-0.51;100.00;98907.15;183073;1232;46426;-83
2024/01/18 19:25:08;;;;;;;33.60;15.50;;;;;;;-0.53;100.00;98914.27;184194;1232;45991;-81
2024/01/18 19:29:10;;;;;;;32.10;19.00;;;;;;;-0.63;100.00;98929.98;183777;1232;44616;-84